Time;durP1;ratioP1;P1;durP2;ratioP2;P2;SDS_P1;SDS_P2;PMS_P1;PMS_P2;Temp;Humidity;BMP_temperature;BMP_pressure;BME280_temperature;BME280_humidity;BME280_pressure;Samples;Min_cycle;Max_cycle;Signal;HPM_P1;HPM_P2
2023/10/27 00:00:58;;;;;;;14.05;3.50;;;11.00;99.90;;;;;;5009514;28;20037;-48
2023/10/27 00:03:24;;;;;;;13.82;4.15;;;11.00;99.90;;;;;;5009291;28;20026;-48
2023/10/27 00:05:50;;;;;;;15.38;4.43;;;11.00;99.90;;;;;;5009298;28;20037;-50
2023/10/27 00:08:16;;;;;;;23.95;4.32;;;11.10;99.90;;;;;;5009353;28;20045;-46
2023/10/27 00:10:41;;;;;;;14.77;3.80;;;11.10;99.90;;;;;;5009295;28;20036;-49
2023/10/27 00:13:07;;;;;;;13.48;3.90;;;11.10;99.90;;;;;;5009310;28;20443;-48
2023/10/27 00:15:33;;;;;;;16.30;4.25;;;11.20;99.90;;;;;;5009164;28;20429;-46
2023/10/27 00:17:59;;;;;;;15.15;4.68;;;11.20;99.90;;;;;;5008625;28;20028;-47
2023/10/27 00:20:25;;;;;;;15.90;4.30;;;11.20;99.90;;;;;;5009225;28;20107;-46
2023/10/27 00:22:51;;;;;;;17.75;3.85;;;11.20;99.90;;;;;;5009223;28;20034;-49
2023/10/27 00:25:16;;;;;;;13.05;4.30;;;11.20;99.90;;;;;;5008809;28;20049;-50
2023/10/27 00:27:42;;;;;;;21.83;4.22;;;11.20;99.90;;;;;;5008696;28;20401;-50
2023/10/27 00:30:09;;;;;;;12.80;3.72;;;11.20;99.90;;;;;;5008814;28;20394;-48
2023/10/27 00:32:37;;;;;;;9.40;4.10;;;11.30;99.90;;;;;;5008951;28;20033;-49
2023/10/27 00:35:04;;;;;;;9.27;4.45;;;11.20;99.90;;;;;;5008921;28;20026;-49
2023/10/27 00:37:35;;;;;;;11.85;3.80;;;11.30;99.90;;;;;;5008826;28;20481;-46
2023/10/27 00:40:02;;;;;;;11.43;3.97;;;11.30;99.90;;;;;;5009004;28;20078;-49
2023/10/27 00:42:27;;;;;;;14.35;3.28;;;11.30;99.90;;;;;;5009120;28;20041;-49
2023/10/27 00:44:53;;;;;;;14.30;3.65;;;11.20;99.90;;;;;;5008729;28;20485;-47
2023/10/27 00:47:18;;;;;;;11.43;3.72;;;11.20;99.90;;;;;;5008823;28;20026;-48
2023/10/27 00:49:44;;;;;;;6.72;3.33;;;11.10;99.90;;;;;;5008685;28;20481;-45
2023/10/27 00:52:12;;;;;;;18.25;4.88;;;11.10;99.90;;;;;;5008924;28;20389;-49
2023/10/27 00:54:39;;;;;;;11.32;3.45;;;11.10;99.90;;;;;;5009115;28;20014;-48
2023/10/27 00:57:05;;;;;;;16.75;3.88;;;11.10;99.90;;;;;;5008518;28;20061;-50
2023/10/27 00:59:32;;;;;;;14.48;3.58;;;11.10;99.90;;;;;;5008792;28;20464;-51
2023/10/27 01:01:58;;;;;;;15.63;3.78;;;11.20;99.90;;;;;;5008855;28;20022;-50
2023/10/27 01:04:24;;;;;;;7.88;3.40;;;11.10;99.90;;;;;;5008596;28;20510;-49
2023/10/27 01:06:50;;;;;;;22.30;5.05;;;11.10;99.90;;;;;;5008476;28;20105;-49
2023/10/27 01:09:16;;;;;;;8.57;3.72;;;11.00;99.90;;;;;;5007310;28;20101;-46
2023/10/27 01:11:42;;;;;;;6.30;4.13;;;11.00;99.90;;;;;;5008579;28;20517;-48
2023/10/27 01:14:07;;;;;;;9.07;3.38;;;11.00;99.90;;;;;;5008408;28;20018;-53
2023/10/27 01:16:33;;;;;;;10.32;3.28;;;10.90;99.90;;;;;;5008413;28;20118;-47
2023/10/27 01:18:59;;;;;;;10.15;3.70;;;10.90;99.90;;;;;;5008991;28;20401;-47
2023/10/27 01:21:24;;;;;;;15.30;3.40;;;10.90;99.90;;;;;;5008358;28;20014;-47
2023/10/27 01:23:50;;;;;;;21.77;4.32;;;10.90;99.90;;;;;;5008188;28;20105;-51
2023/10/27 01:26:15;;;;;;;12.68;3.40;;;10.90;99.90;;;;;;5006977;28;20026;-48
2023/10/27 01:28:41;;;;;;;4.90;3.35;;;10.90;99.90;;;;;;5007998;28;20121;-46
2023/10/27 01:31:06;;;;;;;5.97;2.88;;;10.90;99.90;;;;;;5009280;28;20026;-48
2023/10/27 01:33:32;;;;;;;7.03;3.33;;;10.90;99.90;;;;;;5011733;28;20541;-46
2023/10/27 01:35:58;;;;;;;13.35;3.88;;;10.90;99.90;;;;;;5011654;28;20075;-46
2023/10/27 01:38:23;;;;;;;8.77;2.90;;;10.90;99.90;;;;;;5011351;28;20509;-48
2023/10/27 01:40:49;;;;;;;9.23;3.10;;;10.90;99.90;;;;;;5011685;28;20034;-46
2023/10/27 01:43:14;;;;;;;9.07;4.13;;;10.80;99.90;;;;;;5011519;28;20044;-46
2023/10/27 01:45:40;;;;;;;8.68;3.70;;;10.80;99.90;;;;;;5011537;28;20070;-46
2023/10/27 01:48:06;;;;;;;17.92;4.13;;;10.80;99.90;;;;;;5011128;28;20022;-47
2023/10/27 01:50:32;;;;;;;9.05;3.42;;;10.80;99.90;;;;;;5011391;28;20585;-47
2023/10/27 01:52:57;;;;;;;11.48;4.47;;;10.70;99.90;;;;;;5011448;28;20029;-49
2023/10/27 01:55:24;;;;;;;13.05;3.83;;;10.70;99.90;;;;;;5011540;28;20030;-53
2023/10/27 01:57:49;;;;;;;10.63;2.63;;;10.70;99.90;;;;;;5010882;28;20128;-51
2023/10/27 02:00:15;;;;;;;13.05;3.13;;;10.60;99.90;;;;;;5011150;28;20072;-49
2023/10/27 02:02:41;;;;;;;3.72;3.00;;;10.70;99.90;;;;;;5011099;28;20042;-49
2023/10/27 02:05:07;;;;;;;11.65;3.90;;;10.60;99.90;;;;;;5011175;28;20561;-52
2023/10/27 02:07:33;;;;;;;18.30;4.40;;;10.70;99.90;;;;;;5010722;28;20022;-50
2023/10/27 02:09:59;;;;;;;9.70;3.80;;;10.70;99.90;;;;;;5011097;28;20037;-45
2023/10/27 02:12:26;;;;;;;10.95;3.60;;;10.70;99.90;;;;;;5010847;28;20036;-49
2023/10/27 02:14:51;;;;;;;8.57;3.15;;;10.60;99.90;;;;;;5011090;28;20374;-51
2023/10/27 02:17:17;;;;;;;6.05;3.47;;;10.60;99.90;;;;;;5010910;28;20033;-52
2023/10/27 02:19:42;;;;;;;6.70;3.40;;;10.60;99.90;;;;;;5010735;28;20032;-48
2023/10/27 02:22:08;;;;;;;14.75;3.83;;;10.50;99.90;;;;;;5010820;28;20034;-50
2023/10/27 02:24:33;;;;;;;12.63;4.20;;;10.50;99.90;;;;;;5010482;28;20343;-45
2023/10/27 02:26:59;;;;;;;10.13;3.50;;;10.50;99.90;;;;;;5010551;28;20033;-46
2023/10/27 02:29:26;;;;;;;14.55;4.78;;;10.50;99.90;;;;;;5010438;28;20485;-52
2023/10/27 02:31:51;;;;;;;14.32;4.47;;;10.50;99.90;;;;;;5010671;28;20078;-49
2023/10/27 02:34:17;;;;;;;16.92;4.43;;;10.60;99.90;;;;;;5010500;28;20097;-49
2023/10/27 02:36:43;;;;;;;13.90;5.53;;;10.60;99.90;;;;;;5010456;28;20133;-51
2023/10/27 02:39:08;;;;;;;12.00;4.78;;;10.70;99.90;;;;;;5010610;28;20029;-50
2023/10/27 02:41:35;;;;;;;15.55;4.85;;;10.70;99.90;;;;;;5010262;28;20018;-43
2023/10/27 02:44:01;;;;;;;17.23;5.55;;;10.70;99.90;;;;;;5010492;28;20082;-49
2023/10/27 02:46:26;;;;;;;14.43;4.50;;;10.70;99.90;;;;;;5010345;28;20446;-46
2023/10/27 02:48:52;;;;;;;10.02;4.40;;;10.70;99.90;;;;;;5010085;28;20546;-49
2023/10/27 02:51:18;;;;;;;22.73;5.45;;;10.70;99.90;;;;;;5010441;28;20057;-47
2023/10/27 02:53:44;;;;;;;24.35;5.30;;;10.80;99.90;;;;;;5010360;28;20071;-50
2023/10/27 02:56:10;;;;;;;18.70;6.00;;;10.70;99.90;;;;;;5010322;28;20393;-53
2023/10/27 02:58:36;;;;;;;12.30;4.95;;;10.70;99.90;;;;;;5009978;28;20033;-49
2023/10/27 03:01:08;;;;;;;18.63;5.93;;;10.80;99.90;;;;;;5010222;28;20033;-50
2023/10/27 03:03:33;;;;;;;12.23;4.38;;;11.20;99.90;;;;;;5010111;28;20041;-48
2023/10/27 03:05:59;;;;;;;15.32;5.22;;;10.70;99.90;;;;;;5009117;28;20187;-46
2023/10/27 03:08:24;;;;;;;20.48;5.30;;;10.70;99.90;;;;;;5009992;28;20025;-47
2023/10/27 03:10:50;;;;;;;13.60;5.70;;;10.80;99.90;;;;;;5010036;28;20465;-46
2023/10/27 03:13:15;;;;;;;19.60;5.32;;;11.10;99.90;;;;;;5010054;28;20065;-46
2023/10/27 03:15:41;;;;;;;18.70;4.55;;;10.70;99.90;;;;;;5010577;28;20383;-46
2023/10/27 03:18:06;;;;;;;28.63;5.80;;;10.70;99.90;;;;;;5010660;28;20449;-47
2023/10/27 03:20:32;;;;;;;12.40;4.68;;;10.70;99.90;;;;;;5010827;28;20030;-51
2023/10/27 03:22:58;;;;;;;20.48;4.63;;;10.80;99.90;;;;;;5009946;28;20022;-49
2023/10/27 03:25:23;;;;;;;12.73;4.68;;;10.70;99.90;;;;;;5009525;28;20489;-46
2023/10/27 03:27:49;;;;;;;15.40;5.20;;;10.70;99.90;;;;;;5009585;28;20041;-46
2023/10/27 03:30:15;;;;;;;10.95;4.30;;;10.70;99.90;;;;;;5009740;28;20026;-46
2023/10/27 03:32:41;;;;;;;18.55;5.88;;;10.70;99.90;;;;;;5009620;28;20493;-54
2023/10/27 03:35:07;;;;;;;17.15;4.32;;;10.70;99.90;;;;;;5009601;28;20026;-46
2023/10/27 03:37:32;;;;;;;23.10;5.43;;;10.70;99.90;;;;;;5009484;28;20022;-47
2023/10/27 03:39:58;;;;;;;24.63;5.18;;;10.80;99.90;;;;;;5009313;28;20025;-50
2023/10/27 03:42:24;;;;;;;21.95;4.97;;;10.70;99.90;;;;;;5009469;28;20024;-50
2023/10/27 03:44:49;;;;;;;17.25;4.85;;;10.70;99.90;;;;;;5009368;28;20030;-48
2023/10/27 03:47:15;;;;;;;20.23;4.80;;;10.70;99.90;;;;;;5009403;28;20040;-51
2023/10/27 03:49:41;;;;;;;21.65;6.50;;;10.70;99.90;;;;;;5009371;28;20037;-48
2023/10/27 03:52:09;;;;;;;20.15;5.38;;;10.80;99.90;;;;;;5009205;28;20470;-46
2023/10/27 03:54:35;;;;;;;22.27;6.30;;;10.80;99.90;;;;;;5008908;28;20060;-42
2023/10/27 03:57:01;;;;;;;22.52;5.93;;;10.80;99.90;;;;;;5009166;28;20065;-46
2023/10/27 03:59:27;;;;;;;18.27;5.70;;;10.80;99.90;;;;;;5009130;28;20026;-47
2023/10/27 04:01:53;;;;;;;22.83;5.40;;;10.80;99.90;;;;;;5009287;28;20481;-45
2023/10/27 04:04:18;;;;;;;20.05;6.07;;;10.80;99.90;;;;;;5009278;28;20022;-46
2023/10/27 04:06:45;;;;;;;21.98;5.47;;;10.80;99.90;;;;;;5009208;28;20374;-50
2023/10/27 04:09:10;;;;;;;17.13;4.82;;;10.90;99.90;;;;;;5009062;28;20025;-49
2023/10/27 04:11:36;;;;;;;16.88;6.75;;;10.90;99.90;;;;;;5009007;28;20044;-46
2023/10/27 04:14:02;;;;;;;15.48;5.35;;;10.90;99.90;;;;;;5009131;28;20533;-48
2023/10/27 04:16:29;;;;;;;17.92;5.22;;;10.90;99.90;;;;;;5008919;28;20022;-48
2023/10/27 04:18:55;;;;;;;14.77;4.93;;;10.90;99.90;;;;;;5008905;28;20456;-50
2023/10/27 04:21:21;;;;;;;12.75;4.97;;;10.90;99.90;;;;;;5009035;28;20117;-49
2023/10/27 04:23:47;;;;;;;23.15;5.38;;;10.90;99.90;;;;;;5008733;28;20054;-47
2023/10/27 04:26:13;;;;;;;16.60;4.90;;;10.90;99.90;;;;;;5008944;28;20026;-47
2023/10/27 04:28:39;;;;;;;13.93;5.07;;;10.90;99.90;;;;;;5008840;28;20557;-45
2023/10/27 04:31:05;;;;;;;22.80;5.65;;;10.90;99.90;;;;;;5009028;28;20061;-49
2023/10/27 04:33:31;;;;;;;17.23;5.43;;;10.90;99.90;;;;;;5008942;28;20018;-50
2023/10/27 04:35:56;;;;;;;12.32;5.32;;;11.00;99.90;;;;;;5008891;28;20063;-47
2023/10/27 04:38:22;;;;;;;16.52;5.57;;;11.00;99.90;;;;;;5008502;28;20026;-48
2023/10/27 04:40:48;;;;;;;17.13;5.50;;;11.00;99.90;;;;;;5009576;28;20030;-50
2023/10/27 04:43:14;;;;;;;14.80;5.78;;;11.00;99.90;;;;;;5008807;28;20481;-50
2023/10/27 04:45:39;;;;;;;16.70;6.43;;;11.00;99.90;;;;;;5008665;28;20113;-48
2023/10/27 04:48:05;;;;;;;16.52;6.75;;;11.00;99.90;;;;;;5008507;28;20120;-50
2023/10/27 04:50:35;;;;;;;20.85;6.35;;;11.00;99.90;;;;;;5009055;28;20022;-49
2023/10/27 04:53:00;;;;;;;17.40;7.25;;;11.00;99.90;;;;;;5008431;28;20018;-50
2023/10/27 04:55:26;;;;;;;20.08;7.15;;;11.00;99.90;;;;;;5008522;28;20544;-52
2023/10/27 04:57:51;;;;;;;18.63;7.53;;;11.00;99.90;;;;;;5008511;28;20377;-51
2023/10/27 05:00:17;;;;;;;13.45;6.63;;;11.10;99.90;;;;;;5008673;28;20029;-49
2023/10/27 05:02:43;;;;;;;19.50;7.10;;;11.00;99.90;;;;;;5008133;28;20069;-49
2023/10/27 05:05:09;;;;;;;21.33;6.90;;;11.00;99.90;;;;;;5009306;28;20512;-52
2023/10/27 05:07:35;;;;;;;16.98;6.97;;;11.10;99.90;;;;;;5011459;28;20404;-49
2023/10/27 05:10:01;;;;;;;13.77;6.40;;;11.00;99.90;;;;;;5012006;28;20025;-52
2023/10/27 05:12:26;;;;;;;19.48;7.43;;;11.00;99.90;;;;;;5011865;28;20026;-52
2023/10/27 05:14:52;;;;;;;19.35;7.28;;;11.00;99.90;;;;;;5014115;28;20485;-46
2023/10/27 05:17:18;;;;;;;22.05;8.40;;;11.00;99.90;;;;;;5012105;28;20060;-46
2023/10/27 05:19:43;;;;;;;16.38;7.07;;;11.00;99.90;;;;;;5011759;28;20026;-46
2023/10/27 05:22:09;;;;;;;18.38;8.07;;;11.00;99.90;;;;;;5011832;28;20034;-51
2023/10/27 05:24:34;;;;;;;18.35;8.48;;;11.10;99.90;;;;;;5011374;28;20101;-49
2023/10/27 05:27:00;;;;;;;23.90;9.43;;;11.10;99.90;;;;;;5011650;28;20026;-49
2023/10/27 05:29:26;;;;;;;20.75;9.25;;;11.10;99.90;;;;;;5011495;28;20082;-51
2023/10/27 05:31:53;;;;;;;15.15;8.73;;;11.10;99.90;;;;;;5011742;28;20033;-48
2023/10/27 05:34:18;;;;;;;14.73;8.88;;;11.10;99.90;;;;;;5011639;28;20022;-49
2023/10/27 05:36:44;;;;;;;28.58;9.82;;;11.20;99.90;;;;;;5011343;28;20030;-46
2023/10/27 05:39:16;;;;;;;18.13;9.07;;;11.20;99.90;;;;;;5011386;28;20026;-50
2023/10/27 05:41:43;;;;;;;26.80;10.57;;;11.20;99.90;;;;;;5011387;28;20109;-50
2023/10/27 05:44:09;;;;;;;20.75;11.68;;;11.20;99.90;;;;;;5011139;28;20022;-48
2023/10/27 05:46:34;;;;;;;20.23;10.88;;;11.20;99.90;;;;;;5011124;28;20496;-51
2023/10/27 05:49:00;;;;;;;19.35;11.20;;;11.20;99.90;;;;;;5011030;28;20030;-49
2023/10/27 05:51:25;;;;;;;19.98;10.75;;;11.30;99.90;;;;;;5011321;28;20022;-51
2023/10/27 05:53:51;;;;;;;17.05;9.48;;;11.30;99.90;;;;;;5011216;28;20062;-48
2023/10/27 05:56:16;;;;;;;19.05;9.80;;;11.30;99.90;;;;;;5011083;28;20041;-50
2023/10/27 05:58:42;;;;;;;16.63;9.27;;;11.30;99.90;;;;;;5011187;28;20130;-48
2023/10/27 06:01:07;;;;;;;21.45;9.88;;;11.30;99.90;;;;;;5011359;28;20030;-48
2023/10/27 06:03:33;;;;;;;20.83;9.60;;;11.30;99.90;;;;;;5012050;28;20030;-49
2023/10/27 06:05:58;;;;;;;13.35;8.20;;;11.30;99.90;;;;;;5012358;28;20033;-52
2023/10/27 06:08:24;;;;;;;18.98;9.48;;;11.30;99.90;;;;;;5011934;28;20484;-50
2023/10/27 06:10:50;;;;;;;24.40;9.15;;;11.30;99.90;;;;;;5012390;28;20488;-49
2023/10/27 06:13:15;;;;;;;12.60;8.10;;;11.30;99.90;;;;;;5012332;28;20026;-46
2023/10/27 06:15:41;;;;;;;10.73;8.68;;;11.30;99.90;;;;;;5011300;28;20093;-46
2023/10/27 06:18:06;;;;;;;14.63;7.97;;;11.30;99.90;;;;;;5011432;28;20030;-52
2023/10/27 06:20:32;;;;;;;14.60;8.40;;;11.30;99.90;;;;;;5009419;28;20029;-49
2023/10/27 06:22:58;;;;;;;16.52;7.53;;;11.30;99.90;;;;;;5010813;28;20117;-48
2023/10/27 06:25:25;;;;;;;18.42;8.50;;;11.30;99.90;;;;;;5010651;28;20049;-52
2023/10/27 06:27:52;;;;;;;16.05;8.27;;;11.20;99.90;;;;;;5010406;28;20030;-53
2023/10/27 06:30:20;;;;;;;14.50;7.85;;;11.30;99.90;;;;;;5010831;28;20022;-50
2023/10/27 06:32:46;;;;;;;12.05;7.00;;;11.20;99.90;;;;;;5010088;28;20022;-53
2023/10/27 06:35:12;;;;;;;16.77;7.68;;;11.20;99.90;;;;;;5009345;28;20455;-50
2023/10/27 06:37:37;;;;;;;12.45;7.18;;;11.20;99.90;;;;;;5009087;28;20033;-47
2023/10/27 06:40:04;;;;;;;17.10;6.75;;;11.20;99.90;;;;;;5010519;28;20077;-50
2023/10/27 06:42:30;;;;;;;11.02;6.03;;;11.20;99.90;;;;;;5010399;28;20031;-50
2023/10/27 06:44:55;;;;;;;12.02;6.25;;;11.20;99.90;;;;;;5010347;28;20033;-54
2023/10/27 06:47:21;;;;;;;10.40;7.15;;;11.10;99.90;;;;;;5010346;28;20057;-51
2023/10/27 06:49:47;;;;;;;11.63;6.15;;;11.20;99.90;;;;;;5010094;28;20071;-51
2023/10/27 06:52:13;;;;;;;9.52;6.20;;;11.20;99.90;;;;;;5007012;28;20026;-54
2023/10/27 06:54:40;;;;;;;13.70;6.20;;;11.20;99.90;;;;;;4990566;28;20029;-51
2023/10/27 06:57:07;;;;;;;12.63;5.80;;;11.20;99.90;;;;;;4990574;28;20058;-51
2023/10/27 06:59:32;;;;;;;9.88;5.82;;;11.10;99.90;;;;;;4990532;28;20460;-50
2023/10/27 07:01:58;;;;;;;10.45;4.68;;;11.20;99.90;;;;;;4990773;28;20026;-49
2023/10/27 07:04:24;;;;;;;6.75;3.72;;;11.20;99.90;;;;;;4990581;28;20026;-48
2023/10/27 07:06:49;;;;;;;7.88;3.70;;;11.10;99.90;;;;;;5008715;28;20038;-48
2023/10/27 07:09:15;;;;;;;9.20;4.22;;;11.10;99.90;;;;;;5008715;28;20069;-45
2023/10/27 07:11:41;;;;;;;10.05;3.70;;;11.10;99.90;;;;;;5001193;28;20477;-47
2023/10/27 07:14:08;;;;;;;9.48;3.15;;;11.10;99.90;;;;;;4990529;28;20023;-46
2023/10/27 07:16:34;;;;;;;8.98;3.08;;;11.10;99.90;;;;;;4990387;28;20018;-47
2023/10/27 07:18:59;;;;;;;6.90;3.33;;;11.10;99.90;;;;;;5006625;28;20066;-49
2023/10/27 07:21:25;;;;;;;5.30;3.35;;;11.10;99.90;;;;;;5009835;28;20037;-49
2023/10/27 07:23:50;;;;;;;10.48;4.00;;;11.10;99.90;;;;;;5009771;28;20037;-49
2023/10/27 07:26:17;;;;;;;8.27;4.32;;;11.10;99.90;;;;;;5009950;28;20075;-49
2023/10/27 07:28:43;;;;;;;5.70;3.55;;;11.10;99.90;;;;;;5008548;28;20480;-49
2023/10/27 07:31:09;;;;;;;7.43;3.42;;;11.20;99.90;;;;;;5009139;28;20447;-50
2023/10/27 07:33:35;;;;;;;5.78;3.42;;;11.20;99.90;;;;;;5009238;28;20026;-47
2023/10/27 07:36:02;;;;;;;3.55;2.70;;;11.20;99.90;;;;;;5009665;28;20088;-48
2023/10/27 07:38:28;;;;;;;5.15;2.67;;;11.20;99.90;;;;;;5009538;28;20022;-48
2023/10/27 07:40:58;;;;;;;6.38;3.58;;;11.30;99.90;;;;;;4999514;28;20023;-48
2023/10/27 07:43:24;;;;;;;4.55;2.88;;;11.30;99.90;;;;;;5007523;28;20026;-48
2023/10/27 07:45:49;;;;;;;2.65;2.45;;;11.30;99.90;;;;;;5009585;28;20446;-48
2023/10/27 07:48:15;;;;;;;8.13;3.33;;;11.40;99.90;;;;;;5008453;28;20030;-49
2023/10/27 07:50:40;;;;;;;5.90;3.65;;;11.40;99.90;;;;;;5008039;28;20125;-50
2023/10/27 07:53:06;;;;;;;4.45;3.35;;;11.40;99.90;;;;;;5009582;28;20022;-54
2023/10/27 07:55:32;;;;;;;5.82;3.60;;;11.50;99.90;;;;;;5009454;28;20105;-48
2023/10/27 07:57:58;;;;;;;6.55;3.70;;;11.50;99.90;;;;;;5009273;28;20121;-45
2023/10/27 08:00:23;;;;;;;5.93;3.58;;;11.60;99.90;;;;;;5008227;28;20033;-45
2023/10/27 08:02:51;;;;;;;6.00;3.20;;;11.60;99.90;;;;;;5008002;28;20464;-46
2023/10/27 08:05:17;;;;;;;7.82;3.90;;;11.70;99.90;;;;;;5009174;28;20460;-45
2023/10/27 08:07:44;;;;;;;4.70;3.55;;;11.70;99.90;;;;;;5008832;28;20066;-49
2023/10/27 08:10:09;;;;;;;5.07;3.13;;;11.70;99.90;;;;;;5009272;28;20501;-47
2023/10/27 08:12:35;;;;;;;3.15;2.67;;;11.80;99.90;;;;;;5009181;28;20029;-51
2023/10/27 08:15:05;;;;;;;2.97;2.42;;;11.80;99.90;;;;;;5009981;28;20044;-48
2023/10/27 08:17:33;;;;;;;4.28;3.10;;;11.80;99.90;;;;;;5008984;28;20029;-47
2023/10/27 08:19:59;;;;;;;5.97;2.78;;;11.80;99.90;;;;;;5009075;28;20373;-50
2023/10/27 08:22:25;;;;;;;6.72;3.78;;;11.70;99.90;;;;;;5009319;28;20099;-46
2023/10/27 08:24:50;;;;;;;3.70;2.63;;;11.70;99.90;;;;;;5008180;28;20033;-47
2023/10/27 08:27:16;;;;;;;5.35;2.47;;;11.70;99.90;;;;;;5009415;28;20524;-48
2023/10/27 08:29:41;;;;;;;2.80;2.60;;;11.60;99.90;;;;;;5008963;28;20377;-54
2023/10/27 08:32:07;;;;;;;2.75;2.38;;;11.60;99.90;;;;;;5008925;28;20363;-45
2023/10/27 08:34:34;;;;;;;2.25;1.90;;;11.60;99.90;;;;;;5011232;28;20026;-46
2023/10/27 08:37:00;;;;;;;2.95;2.22;;;11.60;99.90;;;;;;5010013;28;20026;-53
2023/10/27 08:39:25;;;;;;;3.13;1.98;;;11.60;99.90;;;;;;5009561;28;20037;-51
2023/10/27 08:41:51;;;;;;;3.55;1.90;;;11.60;99.90;;;;;;5010845;28;20029;-56
2023/10/27 08:44:18;;;;;;;1.63;1.50;;;11.60;99.90;;;;;;5010517;28;20026;-50
2023/10/27 08:46:45;;;;;;;1.85;1.70;;;11.50;99.90;;;;;;5010104;28;20049;-52
2023/10/27 08:49:10;;;;;;;4.25;1.67;;;11.60;99.90;;;;;;5010208;28;20030;-56
2023/10/27 08:51:38;;;;;;;2.40;1.70;;;11.60;99.90;;;;;;5011058;28;20033;-56
2023/10/27 08:54:05;;;;;;;2.63;1.73;;;11.60;99.90;;;;;;5011699;28;20388;-53
2023/10/27 08:56:31;;;;;;;4.18;1.80;;;11.60;99.90;;;;;;5009739;28;20041;-52
2023/10/27 08:58:58;;;;;;;6.13;1.50;;;11.60;99.90;;;;;;5009831;28;20392;-52
2023/10/27 09:01:26;;;;;;;2.85;1.45;;;11.60;99.90;;;;;;5009465;28;20030;-46
2023/10/27 09:04:19;;;;;;;3.00;2.00;;;11.60;99.90;;;;;;5010415;28;20022;-47
2023/10/27 09:06:45;;;;;;;1.98;1.63;;;11.50;99.90;;;;;;4991520;28;20026;-50
2023/10/27 09:09:10;;;;;;;2.10;1.67;;;11.50;99.90;;;;;;4990745;28;20416;-45
2023/10/27 09:11:47;;;;;;;1.50;1.40;;;11.50;99.90;;;;;;5010381;28;20026;-47
2023/10/27 09:14:30;;;;;;;4.43;1.73;;;11.50;99.90;;;;;;5004742;28;20278;-49
2023/10/27 09:17:04;;;;;;;4.43;1.92;;;11.50;99.90;;;;;;5021887;28;20033;-51
2023/10/27 09:19:29;;;;;;;1.85;1.10;;;11.50;99.90;;;;;;5016994;28;20520;-52
2023/10/27 09:21:55;;;;;;;2.35;1.90;;;11.60;99.90;;;;;;5018353;28;20034;-48
2023/10/27 09:24:26;;;;;;;1.30;1.20;;;11.60;99.90;;;;;;5011197;28;20026;-49
2023/10/27 09:26:52;;;;;;;1.30;1.30;;;11.60;99.90;;;;;;5011358;28;20113;-50
2023/10/27 09:29:19;;;;;;;2.60;1.40;;;11.60;99.90;;;;;;5010811;28;20113;-44
2023/10/27 09:31:44;;;;;;;1.55;1.30;;;11.80;99.90;;;;;;5009652;28;20433;-47
2023/10/27 09:34:17;;;;;;;1.50;1.40;;;11.70;99.90;;;;;;5010178;28;20037;-50
2023/10/27 09:36:48;;;;;;;1.40;1.25;;;11.70;99.90;;;;;;5010125;28;20485;-51
2023/10/27 09:39:19;;;;;;;1.58;1.48;;;11.80;99.90;;;;;;5009319;28;20018;-50
2023/10/27 09:42:04;;;;;;;1.13;1.13;;;11.80;99.90;;;;;;5010029;28;20101;-47
2023/10/27 09:44:40;;;;;;;1.08;0.77;;;11.90;99.90;;;;;;5012523;28;20767;-55
2023/10/27 09:47:26;;;;;;;1.63;1.05;;;11.90;99.90;;;;;;5010556;28;20038;-51
2023/10/27 09:50:01;;;;;;;11.55;7.85;;;11.90;99.90;;;;;;5009846;28;20022;-51
2023/10/27 09:52:29;;;;;;;4.35;3.20;;;12.00;99.90;;;;;;5007935;28;20113;-54
2023/10/27 09:54:58;;;;;;;62.45;39.80;;;12.00;99.90;;;;;;4993804;28;20109;-49
2023/10/27 09:57:24;;;;;;;4.15;3.30;;;12.20;99.90;;;;;;4992571;28;20041;-50
2023/10/27 09:59:51;;;;;;;1.10;1.10;;;12.40;99.90;;;;;;4992655;28;20432;-52
2023/10/27 10:02:17;;;;;;;0.88;0.73;;;12.50;99.90;;;;;;5108937;28;20454;-47
2023/10/27 10:04:52;;;;;;;1.00;1.00;;;12.90;99.90;;;;;;4997408;28;20101;-52
2023/10/27 10:07:34;;;;;;;0.60;0.60;;;13.30;99.90;;;;;;5012502;28;20075;-47
2023/10/27 10:10:19;;;;;;;0.80;0.80;;;13.70;99.90;;;;;;5011118;28;20075;-47
2023/10/27 10:13:01;;;;;;;0.77;0.75;;;14.40;99.90;;;;;;5011103;28;20026;-47
2023/10/27 10:15:34;;;;;;;0.77;0.70;;;14.70;99.90;;;;;;5011119;28;20476;-46
2023/10/27 10:18:08;;;;;;;0.63;0.50;;;14.90;99.90;;;;;;5011888;28;20453;-48
2023/10/27 10:20:56;;;;;;;0.60;0.60;;;15.00;99.90;;;;;;5002189;28;20023;-52
2023/10/27 10:23:24;;;;;;;2.85;0.70;;;14.70;99.90;;;;;;5007286;28;20022;-50
2023/10/27 10:25:54;;;;;;;1.10;0.60;;;14.60;99.90;;;;;;5011863;28;20026;-50
2023/10/27 10:28:20;;;;;;;0.50;0.50;;;14.40;99.90;;;;;;5010624;28;20370;-51
2023/10/27 10:30:47;;;;;;;0.60;0.60;;;14.20;99.90;;;;;;5010882;28;20032;-51
2023/10/27 10:33:19;;;;;;;1.50;0.70;;;14.00;99.90;;;;;;4992572;28;20019;-53
2023/10/27 10:35:46;;;;;;;2.33;0.40;;;13.80;99.90;;;;;;4991630;28;20035;-51
2023/10/27 10:38:23;;;;;;;1.02;0.60;;;13.70;99.90;;;;;;4990876;28;20062;-47
2023/10/27 10:40:50;;;;;;;0.93;0.70;;;13.70;99.90;;;;;;4998292;28;20493;-50
2023/10/27 10:43:34;;;;;;;0.93;0.77;;;13.60;99.90;;;;;;5044846;28;20054;-49
2023/10/27 10:46:01;;;;;;;3.42;0.70;;;13.60;99.90;;;;;;5007555;28;20511;-51
2023/10/27 10:48:30;;;;;;;2.05;0.70;;;13.60;99.90;;;;;;4990925;28;20579;-46
2023/10/27 10:51:00;;;;;;;1.90;0.90;;;13.50;99.90;;;;;;4991029;28;20027;-52
2023/10/27 10:53:26;;;;;;;1.30;0.75;;;13.50;99.90;;;;;;4991040;28;20015;-52
2023/10/27 10:55:58;;;;;;;0.65;0.50;;;13.60;99.90;;;;;;4990780;28;20026;-44
2023/10/27 10:58:27;;;;;;;1.17;0.60;;;13.50;99.90;;;;;;4993624;28;20053;-48
2023/10/27 11:00:55;;;;;;;2.05;0.80;;;13.50;99.90;;;;;;5010369;28;20054;-45
2023/10/27 11:03:22;;;;;;;4.45;1.10;;;13.50;99.90;;;;;;5010286;28;20026;-48
2023/10/27 11:05:48;;;;;;;5.70;1.00;;;13.50;99.90;;;;;;5010238;28;20553;-49
2023/10/27 11:08:24;;;;;;;2.47;1.25;;;13.50;99.90;;;;;;5010042;28;20105;-47
2023/10/27 11:11:04;;;;;;;4.45;0.90;;;13.50;99.90;;;;;;5010378;28;20025;-46
2023/10/27 11:13:31;;;;;;;7.30;4.75;;;13.60;99.90;;;;;;5009893;28;20028;-51
2023/10/27 11:15:57;;;;;;;19.27;11.30;;;13.60;99.90;;;;;;5010077;28;20022;-47
2023/10/27 11:18:27;;;;;;;24.02;12.45;;;13.60;99.90;;;;;;5010184;28;20389;-45
2023/10/27 11:20:53;;;;;;;6.20;1.17;;;13.70;99.90;;;;;;5010015;28;20442;-49
2023/10/27 11:23:18;;;;;;;3.47;1.45;;;13.80;99.90;;;;;;5009843;28;20030;-52
2023/10/27 11:25:44;;;;;;;7.55;1.40;;;13.90;99.90;;;;;;5009909;28;20030;-44
2023/10/27 11:28:26;;;;;;;4.82;1.25;;;13.90;99.90;;;;;;5009840;28;20030;-47
2023/10/27 11:31:07;;;;;;;1.00;0.85;;;14.00;99.90;;;;;;5009753;28;20374;-46
2023/10/27 11:33:34;;;;;;;3.03;1.20;;;14.00;99.90;;;;;;5009680;28;20104;-48
2023/10/27 11:35:59;;;;;;;3.45;1.05;;;14.10;99.90;;;;;;4997620;28;20482;-46
2023/10/27 11:38:32;;;;;;;3.58;1.05;;;14.10;99.90;;;;;;4989839;28;20029;-49
2023/10/27 11:41:11;;;;;;;6.63;1.45;;;14.10;99.90;;;;;;4990266;28;20054;-46
2023/10/27 11:43:37;;;;;;;2.95;1.10;;;14.30;99.90;;;;;;4989822;28;20030;-47
2023/10/27 11:46:14;;;;;;;4.70;1.45;;;14.30;99.90;;;;;;4989653;28;20022;-47
2023/10/27 11:48:40;;;;;;;3.22;1.08;;;14.40;99.90;;;;;;4989782;28;20034;-46
2023/10/27 11:51:06;;;;;;;6.95;1.17;;;14.50;99.90;;;;;;4989974;28;20394;-45
2023/10/27 11:53:34;;;;;;;3.47;1.15;;;14.60;99.90;;;;;;4990021;28;20038;-47
2023/10/27 11:56:00;;;;;;;3.40;1.20;;;14.70;99.90;;;;;;4989745;28;20019;-46
2023/10/27 11:58:26;;;;;;;4.53;1.27;;;14.70;99.90;;;;;;4989225;28;20084;-46
2023/10/27 12:00:51;;;;;;;2.83;1.05;;;14.70;99.90;;;;;;4989778;28;20571;-50
2023/10/27 12:03:16;;;;;;;4.90;1.10;;;14.60;99.90;;;;;;4989716;28;20052;-45
2023/10/27 12:05:42;;;;;;;3.05;1.15;;;14.50;99.90;;;;;;4988496;28;20042;-44
2023/10/27 12:08:07;;;;;;;4.03;0.75;;;14.50;99.90;;;;;;5007903;28;20125;-45
2023/10/27 12:10:34;;;;;;;2.88;1.23;;;14.50;99.90;;;;;;5009059;28;20026;-47
2023/10/27 12:13:03;;;;;;;10.10;6.75;;;14.50;99.90;;;;;;5009126;28;20044;-46
2023/10/27 12:15:29;;;;;;;29.73;15.00;;;14.40;99.90;;;;;;5008958;28;20022;-41
2023/10/27 12:17:54;;;;;;;61.65;35.50;;;14.40;99.90;;;;;;5008724;28;20048;-44
2023/10/27 12:20:20;;;;;;;5.20;3.67;;;14.40;99.90;;;;;;5008846;28;20025;-49
2023/10/27 12:22:45;;;;;;;9.40;4.05;;;14.40;99.90;;;;;;5008828;28;20036;-45
2023/10/27 12:25:11;;;;;;;7.38;2.17;;;14.30;99.90;;;;;;5008159;28;20036;-46
2023/10/27 12:27:37;;;;;;;2.90;1.33;;;14.30;99.90;;;;;;5007868;28;20197;-45
2023/10/27 12:30:03;;;;;;;1.52;1.42;;;14.20;99.90;;;;;;5008706;28;20026;-47
2023/10/27 12:32:32;;;;;;;4.97;2.60;;;14.30;99.90;;;;;;5009037;28;20097;-49
2023/10/27 12:34:59;;;;;;;4.13;1.25;;;14.30;99.90;;;;;;5008865;28;20062;-44
2023/10/27 12:37:24;;;;;;;5.03;1.40;;;14.30;99.90;;;;;;5008214;28;20032;-44
2023/10/27 12:39:50;;;;;;;2.22;1.00;;;14.40;99.90;;;;;;5010822;28;20026;-45